sensor_id;sensor_type;location;lat;lon;timestamp;temperature;humidity
25140;DHT22;39015;48.106;-1.682;2023-02-01T18:42:09;13.70;76.30
25140;DHT22;39015;48.106;-1.682;2023-02-01T18:44:36;13.80;76.30
25140;DHT22;39015;48.106;-1.682;2023-02-01T18:47:03;13.80;76.20
25140;DHT22;39015;48.106;-1.682;2023-02-01T18:49:30;13.70;76.20
25140;DHT22;39015;48.106;-1.682;2023-02-01T18:51:58;13.70;76.30
25140;DHT22;39015;48.106;-1.682;2023-02-01T18:54:26;13.70;76.30
25140;DHT22;39015;48.106;-1.682;2023-02-01T18:56:53;13.70;76.20
25140;DHT22;39015;48.106;-1.682;2023-02-01T18:59:21;13.80;76.20
25140;DHT22;39015;48.106;-1.682;2023-02-01T19:01:49;13.80;76.10
25140;DHT22;39015;48.106;-1.682;2023-02-01T19:04:16;13.80;76.00
25140;DHT22;39015;48.106;-1.682;2023-02-01T19:06:43;13.80;76.10
25140;DHT22;39015;48.106;-1.682;2023-02-01T19:09:10;13.80;76.00
25140;DHT22;39015;48.106;-1.682;2023-02-01T19:11:37;13.80;76.00
25140;DHT22;39015;48.106;-1.682;2023-02-01T19:14:04;13.80;76.00
25140;DHT22;39015;48.106;-1.682;2023-02-01T19:16:33;13.80;76.00
25140;DHT22;39015;48.106;-1.682;2023-02-01T19:19:04;13.80;76.00
25140;DHT22;39015;48.106;-1.682;2023-02-01T19:21:31;13.80;76.00
25140;DHT22;39015;48.106;-1.682;2023-02-01T19:23:58;13.80;75.90
25140;DHT22;39015;48.106;-1.682;2023-02-01T19:26:25;13.90;75.90
25140;DHT22;39015;48.106;-1.682;2023-02-01T19:28:52;13.80;75.70
25140;DHT22;39015;48.106;-1.682;2023-02-01T19:31:19;13.80;75.70
25140;DHT22;39015;48.106;-1.682;2023-02-01T19:33:47;13.80;75.80
25140;DHT22;39015;48.106;-1.682;2023-02-01T19:36:14;13.80;75.90
25140;DHT22;39015;48.106;-1.682;2023-02-01T19:38:41;13.80;75.90
25140;DHT22;39015;48.106;-1.682;2023-02-01T19:41:08;13.80;75.90
25140;DHT22;39015;48.106;-1.682;2023-02-01T19:43:35;13.70;76.00
25140;DHT22;39015;48.106;-1.682;2023-02-01T19:46:04;13.70;76.00
25140;DHT22;39015;48.106;-1.682;2023-02-01T19:48:31;13.80;76.00
25140;DHT22;39015;48.106;-1.682;2023-02-01T19:51:00;13.80;76.00
25140;DHT22;39015;48.106;-1.682;2023-02-01T19:53:29;13.80;75.80
25140;DHT22;39015;48.106;-1.682;2023-02-01T19:55:57;13.80;75.70
25140;DHT22;39015;48.106;-1.682;2023-02-01T19:58:26;13.80;75.60
25140;DHT22;39015;48.106;-1.682;2023-02-01T20:00:53;13.80;75.60
25140;DHT22;39015;48.106;-1.682;2023-02-01T20:03:20;13.80;75.60
25140;DHT22;39015;48.106;-1.682;2023-02-01T20:05:50;13.80;75.50
25140;DHT22;39015;48.106;-1.682;2023-02-01T20:08:18;13.90;75.60
25140;DHT22;39015;48.106;-1.682;2023-02-01T20:10:46;13.80;75.50
25140;DHT22;39015;48.106;-1.682;2023-02-01T20:13:13;13.80;75.50
25140;DHT22;39015;48.106;-1.682;2023-02-01T20:15:41;13.90;75.70
25140;DHT22;39015;48.106;-1.682;2023-02-01T20:18:08;13.90;75.70
25140;DHT22;39015;48.106;-1.682;2023-02-01T20:20:35;13.80;75.60
25140;DHT22;39015;48.106;-1.682;2023-02-01T20:23:02;13.80;75.60
25140;DHT22;39015;48.106;-1.682;2023-02-01T20:25:31;13.80;76.60
25140;DHT22;39015;48.106;-1.682;2023-02-01T20:27:58;13.80;75.80
25140;DHT22;39015;48.106;-1.682;2023-02-01T20:30:25;13.80;75.80
25140;DHT22;39015;48.106;-1.682;2023-02-01T20:32:53;13.80;75.80
25140;DHT22;39015;48.106;-1.682;2023-02-01T20:35:20;13.80;75.70
25140;DHT22;39015;48.106;-1.682;2023-02-01T20:37:48;13.80;75.70
25140;DHT22;39015;48.106;-1.682;2023-02-01T20:40:16;13.80;75.60
25140;DHT22;39015;48.106;-1.682;2023-02-01T20:42:45;13.80;75.60
25140;DHT22;39015;48.106;-1.682;2023-02-01T20:45:12;13.80;75.60
25140;DHT22;39015;48.106;-1.682;2023-02-01T20:47:39;13.90;75.60
25140;DHT22;39015;48.106;-1.682;2023-02-01T20:50:09;13.80;75.60
25140;DHT22;39015;48.106;-1.682;2023-02-01T20:52:36;13.80;75.50
25140;DHT22;39015;48.106;-1.682;2023-02-01T20:55:04;13.80;75.50
25140;DHT22;39015;48.106;-1.682;2023-02-01T20:57:31;13.80;75.50
25140;DHT22;39015;48.106;-1.682;2023-02-01T21:00:00;13.90;75.50
25140;DHT22;39015;48.106;-1.682;2023-02-01T21:02:27;13.80;75.50
25140;DHT22;39015;48.106;-1.682;2023-02-01T21:04:54;13.90;75.50
25140;DHT22;39015;48.106;-1.682;2023-02-01T21:07:21;13.90;75.50
25140;DHT22;39015;48.106;-1.682;2023-02-01T21:09:48;13.80;75.50
25140;DHT22;39015;48.106;-1.682;2023-02-01T21:12:15;13.80;75.50
25140;DHT22;39015;48.106;-1.682;2023-02-01T21:14:42;13.80;75.50
25140;DHT22;39015;48.106;-1.682;2023-02-01T21:17:11;13.80;75.50
